createdAt,value
2023-03-12T00:01:17.110Z,100394.28
2023-03-12T00:03:44.859Z,100389.47
2023-03-12T00:06:12.737Z,100384.38
2023-03-12T00:08:42.302Z,100388.81
2023-03-12T00:11:11.853Z,100378.03
2023-03-12T00:13:39.964Z,100381.69
2023-03-12T00:16:10.077Z,100374.19
2023-03-12T00:18:37.847Z,100377.94
2023-03-12T00:21:06.979Z,100378.28
2023-03-12T00:23:35.143Z,100374.72
2023-03-12T00:26:06.785Z,100372.53
2023-03-12T00:28:35.505Z,100373.06
2023-03-12T00:31:03.579Z,100384.69
2023-03-12T00:33:31.415Z,100389.03
2023-03-12T00:36:01.913Z,100387.44
2023-03-12T00:38:29.703Z,100390.75
2023-03-12T00:40:57.405Z,100395.19
2023-03-12T00:43:26.645Z,100392.41
2023-03-12T00:45:54.391Z,100398.94
2023-03-12T00:48:22.060Z,100393.91
2023-03-12T00:50:49.712Z,100409.88
2023-03-12T00:53:17.456Z,100408.09
2023-03-12T00:55:45.288Z,100406.53
2023-03-12T00:58:12.978Z,100402.00
2023-03-12T01:00:42.097Z,100409.38
2023-03-12T01:03:09.812Z,100414.63
2023-03-12T01:05:40.518Z,100408.84
2023-03-12T01:08:09.140Z,100408.00
2023-03-12T01:10:37.649Z,100405.97
2023-03-12T01:13:05.308Z,100416.00
2023-03-12T01:15:33.217Z,100420.41
2023-03-12T01:18:02.294Z,100418.47
2023-03-12T01:20:30.045Z,100416.66
2023-03-12T01:22:57.870Z,100415.38
2023-03-12T01:25:25.615Z,100423.25
2023-03-12T01:27:53.284Z,100418.16
2023-03-12T01:30:20.987Z,100419.50
2023-03-12T01:32:48.754Z,100417.19
2023-03-12T01:35:17.862Z,100418.91
2023-03-12T01:37:45.589Z,100420.78
2023-03-12T01:40:15.994Z,100423.69
2023-03-12T01:42:43.440Z,100416.44
2023-03-12T01:45:44.378Z,100424.78
2023-03-12T01:48:12.079Z,100427.47
2023-03-12T01:50:41.181Z,100429.44
2023-03-12T01:53:08.980Z,100434.16
2023-03-12T01:55:36.688Z,100438.75
2023-03-12T01:58:04.557Z,100440.03
2023-03-12T02:00:32.217Z,100436.19
2023-03-12T02:03:03.296Z,100445.13
2023-03-12T02:05:34.652Z,100440.25
2023-03-12T02:08:03.673Z,100449.75
2023-03-12T02:10:31.310Z,100444.00
2023-03-12T02:12:59.134Z,100452.47
2023-03-12T02:15:27.749Z,100453.69
2023-03-12T02:17:55.576Z,100450.31
2023-03-12T02:20:29.079Z,100441.19
2023-03-12T02:23:04.763Z,100452.41
2023-03-12T02:25:38.470Z,100453.38
2023-03-12T02:28:09.547Z,100453.25
2023-03-12T02:30:38.134Z,100462.00
2023-03-12T02:33:08.711Z,100464.50
2023-03-12T02:35:37.543Z,100458.25
2023-03-12T02:38:25.575Z,100454.88
2023-03-12T02:40:56.853Z,100468.22
2023-03-12T02:43:24.905Z,100473.25
2023-03-12T02:45:52.684Z,100468.56
2023-03-12T02:48:20.426Z,100475.41
2023-03-12T02:50:48.084Z,100484.41
2023-03-12T02:53:15.914Z,100479.50
2023-03-12T02:55:43.601Z,100481.16
2023-03-12T02:58:12.727Z,100478.03
2023-03-12T03:00:40.401Z,100476.00
2023-03-12T03:03:08.107Z,100484.34
2023-03-12T03:05:37.777Z,100483.38
2023-03-12T03:08:06.376Z,100482.94
2023-03-12T03:10:34.095Z,100484.97
2023-03-12T03:13:01.764Z,100484.25
2023-03-12T03:15:30.808Z,100480.06
2023-03-12T03:17:59.244Z,100493.34
2023-03-12T03:20:26.996Z,100485.25
2023-03-12T03:22:54.682Z,100490.53
2023-03-12T03:25:23.564Z,100483.47
2023-03-12T03:27:51.296Z,100490.97
2023-03-12T03:30:19.348Z,100497.44
2023-03-12T03:32:48.760Z,100499.91
2023-03-12T03:35:16.737Z,100498.09
2023-03-12T03:37:44.488Z,100497.69
2023-03-12T03:40:13.461Z,100493.75
2023-03-12T03:42:41.402Z,100500.38
2023-03-12T03:45:10.200Z,100502.47
2023-03-12T03:47:37.986Z,100510.16
2023-03-12T03:50:08.461Z,100504.09
2023-03-12T03:52:35.898Z,100513.59
2023-03-12T03:55:03.669Z,100523.22
2023-03-12T03:57:31.343Z,100520.31
2023-03-12T04:00:03.392Z,100521.41
2023-03-12T04:02:31.361Z,100522.03
2023-03-12T04:04:59.400Z,100530.69
2023-03-12T04:07:29.119Z,100535.44
2023-03-12T04:09:57.582Z,100537.78
2023-03-12T04:12:26.113Z,100530.31
2023-03-12T04:14:53.908Z,100528.06
2023-03-12T04:17:21.619Z,100528.31
2023-03-12T04:19:49.300Z,100530.41
2023-03-12T04:22:16.994Z,100533.28
2023-03-12T04:24:46.520Z,100535.09
2023-03-12T04:27:14.209Z,100531.34
2023-03-12T04:29:42.065Z,100534.94
2023-03-12T04:32:09.783Z,100535.78
2023-03-12T04:34:37.486Z,100527.06
2023-03-12T04:37:05.120Z,100535.56
2023-03-12T04:39:32.829Z,100539.31
2023-03-12T04:42:01.811Z,100541.59
2023-03-12T04:44:29.605Z,100543.22
2023-03-12T04:46:57.323Z,100544.72
2023-03-12T04:49:25.011Z,100551.56
2023-03-12T04:51:52.649Z,100547.22
2023-03-12T04:54:21.349Z,100554.91
2023-03-12T04:56:49.217Z,100558.88
2023-03-12T04:59:18.424Z,100554.69
2023-03-12T05:01:46.093Z,100560.72
2023-03-12T05:04:13.821Z,100560.53
2023-03-12T05:06:41.516Z,100555.31
2023-03-12T05:09:09.281Z,100559.50
2023-03-12T05:11:39.611Z,100570.06
2023-03-12T05:14:07.527Z,100562.19
2023-03-12T05:16:36.621Z,100560.97
2023-03-12T05:19:04.910Z,100567.81
2023-03-12T05:21:32.604Z,100570.47
2023-03-12T05:24:00.560Z,100567.38
2023-03-12T05:26:31.414Z,100562.59
2023-03-12T05:28:59.562Z,100568.22
2023-03-12T05:31:27.657Z,100566.38
2023-03-12T05:33:56.715Z,100560.53
2023-03-12T05:36:24.402Z,100558.03
2023-03-12T05:38:52.447Z,100562.63
2023-03-12T05:41:23.018Z,100557.41
2023-03-12T05:43:50.712Z,100555.16
2023-03-12T05:46:18.391Z,100557.22
2023-03-12T05:48:46.100Z,100562.84
2023-03-12T05:51:15.551Z,100561.81
2023-03-12T05:53:43.260Z,100555.56
2023-03-12T05:56:13.926Z,100562.22
2023-03-12T05:58:42.170Z,100560.13
2023-03-12T06:01:13.406Z,100566.13
2023-03-12T06:03:42.818Z,100564.69
2023-03-12T06:06:10.576Z,100561.78
2023-03-12T06:08:39.967Z,100567.22
2023-03-12T06:11:07.718Z,100568.44
2023-03-12T06:13:35.504Z,100568.44
2023-03-12T06:16:05.379Z,100562.63
2023-03-12T06:18:33.183Z,100565.09
2023-03-12T06:21:12.472Z,100569.66
2023-03-12T06:23:41.939Z,100568.00
2023-03-12T06:26:10.366Z,100569.03
2023-03-12T06:28:38.645Z,100578.13
2023-03-12T06:31:06.972Z,100584.13
2023-03-12T06:33:35.230Z,100576.09
2023-03-12T06:36:05.019Z,100583.13
2023-03-12T06:38:33.086Z,100578.78
2023-03-12T06:41:04.513Z,100581.25
2023-03-12T06:43:33.932Z,100583.91
2023-03-12T06:46:02.192Z,100586.59
2023-03-12T06:48:31.016Z,100589.50
2023-03-12T06:50:58.776Z,100594.69
2023-03-12T06:53:27.195Z,100603.78
2023-03-12T06:55:54.900Z,100600.25
2023-03-12T06:58:23.969Z,100594.00
2023-03-12T07:00:51.996Z,100606.44
2023-03-12T07:03:19.682Z,100603.47
2023-03-12T07:05:48.957Z,100610.38
2023-03-12T07:08:18.482Z,100610.78
2023-03-12T07:10:46.644Z,100612.38
2023-03-12T07:13:14.330Z,100613.91
2023-03-12T07:15:44.992Z,100616.34
2023-03-12T07:18:13.151Z,100606.56
2023-03-12T07:20:42.421Z,100606.09
2023-03-12T07:23:10.562Z,100609.59
2023-03-12T07:25:38.598Z,100614.56
2023-03-12T07:28:07.135Z,100625.38
2023-03-12T07:30:35.184Z,100621.03
2023-03-12T07:33:04.884Z,100619.53
2023-03-12T07:35:33.513Z,100628.66
2023-03-12T07:38:02.135Z,100629.44
2023-03-12T07:40:30.230Z,100632.38
2023-03-12T07:42:58.475Z,100631.09
2023-03-12T07:45:26.404Z,100634.63
2023-03-12T07:47:54.185Z,100631.22
2023-03-12T07:50:23.272Z,100637.06
2023-03-12T07:52:51.539Z,100637.91
2023-03-12T07:55:19.554Z,100635.66
2023-03-12T07:57:47.357Z,100637.59
2023-03-12T08:00:17.101Z,100647.94
2023-03-12T08:02:45.703Z,100651.94
2023-03-12T08:05:13.578Z,100655.16
2023-03-12T08:07:42.614Z,100647.22
2023-03-12T08:10:11.924Z,100657.66
2023-03-12T08:12:39.668Z,100660.72
2023-03-12T08:15:09.509Z,100654.63
2023-03-12T08:17:37.220Z,100659.00
2023-03-12T08:20:05.815Z,100659.16
2023-03-12T08:22:33.552Z,100660.44
2023-03-12T08:25:02.625Z,100662.63
2023-03-12T08:27:30.368Z,100666.53
2023-03-12T08:29:58.059Z,100667.31
2023-03-12T08:32:26.112Z,100659.13
2023-03-12T08:34:53.939Z,100669.69
2023-03-12T08:37:22.552Z,100667.38
2023-03-12T08:39:50.192Z,100674.19
2023-03-12T08:42:19.274Z,100671.69
2023-03-12T08:44:46.908Z,100677.13
2023-03-12T08:47:14.666Z,100676.78
2023-03-12T08:49:42.297Z,100677.28
2023-03-12T08:52:10.027Z,100677.72
2023-03-12T08:54:37.847Z,100677.59
2023-03-12T08:57:05.458Z,100676.09
2023-03-12T08:59:34.501Z,100676.00
2023-03-12T09:02:02.348Z,100672.53
2023-03-12T09:04:30.078Z,100674.72
2023-03-12T09:06:57.784Z,100682.53
2023-03-12T09:09:25.368Z,100668.53
2023-03-12T09:11:53.047Z,100680.50
2023-03-12T09:17:09.671Z,100674.84
2023-03-12T09:19:37.364Z,100686.34
2023-03-12T09:22:05.050Z,100676.00
2023-03-12T09:24:32.899Z,100680.53
2023-03-12T09:27:00.786Z,100674.97
2023-03-12T09:29:28.384Z,100685.84
2023-03-12T09:32:00.287Z,100684.44
2023-03-12T09:34:29.335Z,100681.63
2023-03-12T09:36:57.207Z,100679.97
2023-03-12T09:39:24.846Z,100685.84
2023-03-12T09:41:52.788Z,100680.41
2023-03-12T09:44:28.321Z,100686.28
2023-03-12T09:47:00.947Z,100683.59
2023-03-12T09:49:35.610Z,100679.97
2023-03-12T09:52:09.453Z,100679.38
2023-03-12T09:54:44.747Z,100677.56
2023-03-12T09:57:20.596Z,100678.53
2023-03-12T09:59:48.281Z,100687.84
2023-03-12T10:02:43.009Z,100675.34
2023-03-12T10:05:18.491Z,100661.38
2023-03-12T10:07:53.215Z,100656.78
2023-03-12T10:10:29.314Z,100651.38
2023-03-12T10:13:12.821Z,100658.22
2023-03-12T10:15:53.068Z,100658.91
2023-03-12T10:18:34.485Z,100660.44
2023-03-12T10:21:17.704Z,100656.88
2023-03-12T10:24:01.482Z,100652.84
2023-03-12T10:26:33.095Z,100642.91
2023-03-12T10:29:05.391Z,100653.81
2023-03-12T10:31:37.126Z,100651.31
2023-03-12T10:34:14.603Z,100643.59
2023-03-12T10:36:45.472Z,100629.03
2023-03-12T10:39:16.724Z,100627.66
2023-03-12T10:41:45.855Z,100633.50
2023-03-12T10:44:19.536Z,100618.91
2023-03-12T10:46:55.101Z,100640.56
2023-03-12T10:49:29.202Z,100638.66
2023-03-12T10:52:01.398Z,100633.50
2023-03-12T10:54:32.378Z,100626.09
2023-03-12T10:57:00.438Z,100613.91
2023-03-12T10:59:31.390Z,100614.34
2023-03-12T11:01:59.345Z,100623.00
2023-03-12T11:04:30.366Z,100621.41
2023-03-12T11:07:27.775Z,100617.59
2023-03-12T11:10:15.208Z,100612.28
2023-03-12T11:12:53.698Z,100612.47
2023-03-12T11:15:24.451Z,100609.28
2023-03-12T11:17:52.629Z,100597.81
2023-03-12T11:20:28.003Z,100604.00
2023-03-12T11:22:57.213Z,100597.19
2023-03-12T11:25:27.896Z,100610.22
2023-03-12T11:27:57.822Z,100613.41
2023-03-12T11:30:34.867Z,100606.72
2023-03-12T11:33:04.063Z,100601.44
2023-03-12T11:35:46.398Z,100590.00
2023-03-12T11:38:18.925Z,100594.06
2023-03-12T11:41:04.484Z,100593.59
2023-03-12T11:43:46.233Z,100597.00
2023-03-12T11:46:28.142Z,100581.81
2023-03-12T11:49:07.678Z,100578.44
2023-03-12T11:51:47.434Z,100581.81
2023-03-12T11:54:42.539Z,100582.97
2023-03-12T11:57:16.948Z,100574.88
2023-03-12T12:00:07.036Z,100565.16
2023-03-12T12:02:57.843Z,100556.09
2023-03-12T12:05:37.108Z,100559.66
2023-03-12T12:08:24.246Z,100557.22
2023-03-12T12:11:04.705Z,100561.63
2023-03-12T12:13:42.860Z,100556.66
2023-03-12T12:16:24.995Z,100545.53
2023-03-12T12:19:05.563Z,100542.56
2023-03-12T12:21:43.054Z,100534.53
2023-03-12T12:24:22.514Z,100528.38
2023-03-12T12:27:02.120Z,100543.88
2023-03-12T12:29:52.076Z,100537.59
2023-03-12T12:32:28.646Z,100530.28
2023-03-12T12:35:16.183Z,100512.53
2023-03-12T12:37:50.764Z,100489.06
2023-03-12T12:40:24.295Z,100492.13
2023-03-12T12:43:04.796Z,100490.22
2023-03-12T12:45:32.488Z,100497.97
2023-03-12T12:48:05.091Z,100488.91
2023-03-12T12:50:37.184Z,100483.69
2023-03-12T12:53:22.352Z,100490.28
2023-03-12T12:56:01.158Z,100487.19
2023-03-12T12:58:45.580Z,100478.13
2023-03-12T13:01:15.954Z,100477.19
2023-03-12T13:03:45.534Z,100472.63
2023-03-12T13:06:13.243Z,100482.06
2023-03-12T13:09:02.239Z,100484.13
2023-03-12T13:11:39.314Z,100484.34
2023-03-12T13:14:20.237Z,100477.44
2023-03-12T13:16:49.077Z,100466.25
2023-03-12T13:19:27.189Z,100466.72
2023-03-12T13:22:11.848Z,100457.00
2023-03-12T13:24:46.322Z,100468.75
2023-03-12T13:27:19.937Z,100460.41
2023-03-12T13:29:55.205Z,100470.34
2023-03-12T13:33:01.538Z,100474.38
2023-03-12T13:35:37.311Z,100456.09
2023-03-12T13:38:08.374Z,100455.28
2023-03-12T13:40:55.842Z,100452.97
2023-03-12T13:43:48.721Z,100438.16
2023-03-12T13:46:30.818Z,100432.16
2023-03-12T13:49:04.586Z,100438.63
2023-03-12T13:51:32.423Z,100430.84
2023-03-12T13:54:02.709Z,100411.81
2023-03-12T13:56:33.204Z,100396.44
2023-03-12T13:59:02.380Z,100404.34
2023-03-12T14:01:36.522Z,100418.38
2023-03-12T14:04:08.987Z,100410.41
2023-03-12T14:06:51.119Z,100405.28
2023-03-12T14:09:25.535Z,100410.09
2023-03-12T14:12:00.438Z,100401.94
2023-03-12T14:14:48.007Z,100399.22
2023-03-12T14:17:20.207Z,100388.50
2023-03-12T14:19:51.786Z,100402.56
2023-03-12T14:22:22.648Z,100395.47
2023-03-12T14:24:54.345Z,100386.25
2023-03-12T14:27:27.166Z,100384.09
2023-03-12T14:29:59.133Z,100377.88
2023-03-12T14:32:32.225Z,100366.88
2023-03-12T14:35:18.809Z,100383.19
2023-03-12T14:37:53.871Z,100385.69
2023-03-12T14:40:25.387Z,100380.72
2023-03-12T14:42:53.218Z,100392.94
2023-03-12T14:45:23.809Z,100403.81
2023-03-12T14:47:56.801Z,100400.22
2023-03-12T14:50:27.643Z,100404.13
2023-03-12T14:52:56.925Z,100406.75
2023-03-12T14:55:26.761Z,100392.91
2023-03-12T14:58:04.917Z,100389.78
2023-03-12T15:00:33.035Z,100378.69
2023-03-12T15:03:11.901Z,100382.06
2023-03-12T15:05:39.922Z,100372.13
2023-03-12T15:08:08.832Z,100353.91
2023-03-12T15:10:37.758Z,100356.31
2023-03-12T15:13:05.783Z,100347.69
2023-03-12T15:15:41.374Z,100338.75
2023-03-12T15:18:14.904Z,100349.22
2023-03-12T15:20:42.930Z,100336.13
2023-03-12T15:23:13.050Z,100326.13
2023-03-12T15:25:41.463Z,100329.63
2023-03-12T15:28:25.618Z,100330.28
2023-03-12T15:31:07.731Z,100329.03
2023-03-12T15:33:37.343Z,100338.03
2023-03-12T15:36:16.958Z,100330.81
2023-03-12T15:38:48.342Z,100321.06
2023-03-12T15:41:19.624Z,100341.66
2023-03-12T15:43:53.016Z,100326.19
2023-03-12T15:46:20.932Z,100333.53
2023-03-12T15:48:52.296Z,100333.47
2023-03-12T15:51:35.720Z,100321.69
2023-03-12T15:54:07.226Z,100312.31
2023-03-12T15:56:36.291Z,100299.31
2023-03-12T15:59:19.413Z,100299.31
2023-03-12T16:01:47.922Z,100294.94
2023-03-12T16:04:17.023Z,100287.63
2023-03-12T16:06:48.163Z,100282.84
2023-03-12T16:09:19.781Z,100289.94
2023-03-12T16:11:48.690Z,100288.94
2023-03-12T16:14:20.278Z,100287.41
2023-03-12T16:16:48.508Z,100275.38
2023-03-12T16:19:19.408Z,100270.78
2023-03-12T16:21:47.535Z,100270.50
2023-03-12T16:24:16.416Z,100263.19
2023-03-12T16:26:49.366Z,100261.56
2023-03-12T16:29:19.106Z,100238.44
2023-03-12T16:31:50.311Z,100251.28
2023-03-12T16:34:19.362Z,100252.59
2023-03-12T16:36:46.925Z,100246.44
2023-03-12T16:39:14.626Z,100238.69
2023-03-12T16:41:43.072Z,100220.66
2023-03-12T16:44:16.719Z,100223.00
2023-03-12T16:46:46.149Z,100230.38
2023-03-12T16:49:15.784Z,100215.44
2023-03-12T16:51:45.088Z,100212.53
2023-03-12T16:54:12.868Z,100218.78
2023-03-12T16:56:43.927Z,100227.31
2023-03-12T16:59:19.076Z,100231.59
2023-03-12T17:01:46.765Z,100229.16
2023-03-12T17:04:14.515Z,100235.66
2023-03-12T17:06:42.301Z,100226.59
2023-03-12T17:09:11.310Z,100218.72
2023-03-12T17:11:39.557Z,100214.50
2023-03-12T17:14:18.180Z,100206.69
2023-03-12T17:16:46.276Z,100204.31
2023-03-12T17:19:14.060Z,100196.66
2023-03-12T17:21:41.951Z,100194.09
2023-03-12T17:24:11.475Z,100198.13
2023-03-12T17:26:39.162Z,100207.25
2023-03-12T17:29:06.871Z,100195.34
2023-03-12T17:31:36.034Z,100194.13
2023-03-12T17:34:04.009Z,100202.19
2023-03-12T17:36:31.725Z,100189.59
2023-03-12T17:38:59.381Z,100180.56
2023-03-12T17:41:28.370Z,100188.94
2023-03-12T17:43:58.684Z,100187.63
2023-03-12T17:46:26.344Z,100176.19
2023-03-12T17:48:54.231Z,100168.47
2023-03-12T17:51:22.298Z,100183.59
2023-03-12T17:53:50.015Z,100171.25
2023-03-12T17:56:19.115Z,100158.69
2023-03-12T17:58:48.496Z,100158.50
2023-03-12T18:01:17.554Z,100162.72
2023-03-12T18:03:45.377Z,100158.50
2023-03-12T18:06:13.407Z,100159.59
2023-03-12T18:08:41.081Z,100154.91
2023-03-12T18:11:08.744Z,100152.28
2023-03-12T18:13:36.346Z,100151.09
2023-03-12T18:16:05.916Z,100141.53
2023-03-12T18:18:33.745Z,100131.56
2023-03-12T18:21:01.395Z,100132.13
2023-03-12T18:23:29.041Z,100127.34
2023-03-12T18:25:56.729Z,100115.47
2023-03-12T18:28:24.350Z,100119.41
2023-03-12T18:30:54.364Z,100116.44
2023-03-12T18:33:23.358Z,100112.34
2023-03-12T18:35:53.868Z,100115.19
2023-03-12T18:38:21.989Z,100118.31
2023-03-12T18:40:51.269Z,100119.47
2023-03-12T18:43:20.793Z,100113.22
2023-03-12T18:45:50.728Z,100109.78
2023-03-12T18:48:18.336Z,100102.53
2023-03-12T18:50:47.298Z,100106.00
2023-03-12T18:53:14.964Z,100113.47
2023-03-12T18:55:42.911Z,100104.78
2023-03-12T18:58:10.618Z,100103.69
2023-03-12T19:00:38.336Z,100107.56
2023-03-12T19:03:06.093Z,100090.22
2023-03-12T19:05:33.846Z,100096.88
2023-03-12T19:08:02.842Z,100098.03
2023-03-12T19:10:30.628Z,100098.03
2023-03-12T19:12:59.076Z,100079.53
2023-03-12T19:15:26.898Z,100077.97
2023-03-12T19:17:54.852Z,100068.47
2023-03-12T19:20:22.873Z,100060.00
2023-03-12T19:22:50.772Z,100065.50
2023-03-12T19:25:20.022Z,100046.53
2023-03-12T19:27:47.707Z,100060.50
2023-03-12T19:30:15.991Z,100048.09
2023-03-12T19:32:44.731Z,100038.16
2023-03-12T19:35:14.703Z,100047.19
2023-03-12T19:37:43.115Z,100042.09
2023-03-12T19:40:13.197Z,100043.59
2023-03-12T19:42:42.356Z,100063.63
2023-03-12T19:45:11.180Z,100053.84
2023-03-12T19:47:38.850Z,100062.88
2023-03-12T19:50:07.558Z,100062.72
2023-03-12T19:52:35.239Z,100062.47
2023-03-12T19:55:05.455Z,100045.63
2023-03-12T19:57:33.520Z,100040.03
2023-03-12T20:00:07.191Z,100051.78
2023-03-12T20:02:36.586Z,100047.44
2023-03-12T20:05:04.396Z,100034.31
2023-03-12T20:07:32.086Z,100037.75
2023-03-12T20:09:59.806Z,100046.72
2023-03-12T20:12:27.668Z,100053.09
2023-03-12T20:14:55.345Z,100044.09
2023-03-12T20:17:24.341Z,100040.03
2023-03-12T20:19:52.014Z,100059.28
2023-03-12T20:22:19.836Z,100040.22
2023-03-12T20:24:47.835Z,100038.88
2023-03-12T20:27:16.106Z,100035.59
2023-03-12T20:29:46.055Z,100041.72
2023-03-12T20:32:13.755Z,100031.91
2023-03-12T20:34:42.949Z,100037.31
2023-03-12T20:37:10.633Z,100040.03
2023-03-12T20:39:38.484Z,100035.44
2023-03-12T20:42:06.334Z,100031.44
2023-03-12T20:44:33.992Z,100018.91
2023-03-12T20:47:01.815Z,100021.38
2023-03-12T20:49:29.493Z,100019.41
2023-03-12T20:51:58.563Z,100029.59
2023-03-12T20:54:27.286Z,100019.88
2023-03-12T20:56:54.948Z,100016.78
2023-03-12T20:59:22.673Z,100018.38
2023-03-12T21:01:50.350Z,100024.38
2023-03-12T21:04:18.099Z,100028.31
2023-03-12T21:06:47.512Z,100032.34
2023-03-12T21:09:16.511Z,100034.94
2023-03-12T21:11:44.159Z,100041.31
2023-03-12T21:14:11.927Z,100034.38
2023-03-12T21:16:39.621Z,100047.38
2023-03-12T21:19:07.406Z,100044.25
2023-03-12T21:21:36.355Z,100046.13
2023-03-12T21:24:04.303Z,100028.50
2023-03-12T21:26:33.378Z,100038.41
2023-03-12T21:29:01.009Z,100034.94
2023-03-12T21:31:28.703Z,100033.88
2023-03-12T21:33:56.889Z,100039.03
2023-03-12T21:36:26.040Z,100027.94
2023-03-12T21:38:53.699Z,100026.59
2023-03-12T21:41:22.183Z,100024.75
2023-03-12T21:43:51.186Z,100028.88
2023-03-12T21:46:24.405Z,100032.09
2023-03-12T21:48:52.237Z,100013.97
2023-03-12T21:51:22.067Z,100003.63
2023-03-12T21:53:54.489Z,100011.00
2023-03-12T21:56:22.219Z,100007.34
2023-03-12T21:58:51.242Z,100002.34
2023-03-12T22:01:19.848Z,100015.41
2023-03-12T22:03:47.782Z,100014.88
2023-03-12T22:06:16.602Z,100004.31
2023-03-12T22:08:45.209Z,100013.44
2023-03-12T22:11:12.870Z,100023.56
2023-03-12T22:13:40.539Z,100019.00
2023-03-12T22:16:10.206Z,100018.16
2023-03-12T22:18:39.538Z,100022.03
2023-03-12T22:21:08.394Z,100015.78
2023-03-12T22:23:37.121Z,100029.19
2023-03-12T22:26:06.545Z,100024.81
2023-03-12T22:28:34.749Z,100020.75
2023-03-12T22:31:04.642Z,100016.22
2023-03-12T22:33:35.610Z,100013.25
2023-03-12T22:36:07.487Z,100006.41
2023-03-12T22:38:36.566Z,100015.22
2023-03-12T22:41:13.360Z,100014.03
2023-03-12T22:43:41.124Z,100022.19
2023-03-12T22:46:08.864Z,100015.75
2023-03-12T22:48:38.143Z,100016.53
2023-03-12T22:51:06.718Z,100005.50
2023-03-12T22:53:35.097Z,99990.81
2023-03-12T22:56:04.927Z,99983.97
2023-03-12T22:58:32.859Z,100005.34
2023-03-12T23:01:01.984Z,100012.41
2023-03-12T23:03:31.145Z,100007.81
2023-03-12T23:06:00.925Z,100007.53
2023-03-12T23:08:29.051Z,100004.81
2023-03-12T23:10:58.655Z,100002.41
2023-03-12T23:13:27.715Z,100001.88
2023-03-12T23:15:55.701Z,99999.47
2023-03-12T23:18:23.407Z,99998.63
2023-03-12T23:21:00.568Z,99999.22
2023-03-12T23:23:29.015Z,99989.69
2023-03-12T23:25:58.418Z,99991.34
2023-03-12T23:28:27.238Z,99994.28
2023-03-12T23:30:56.432Z,99986.44
2023-03-12T23:33:24.235Z,99984.53
2023-03-12T23:35:56.329Z,99972.50
2023-03-12T23:38:26.248Z,99984.63
2023-03-12T23:40:54.044Z,99978.28
2023-03-12T23:43:21.680Z,99982.44
2023-03-12T23:45:56.675Z,99979.75
2023-03-12T23:48:24.483Z,99986.25
2023-03-12T23:50:52.122Z,99985.19
2023-03-12T23:53:19.971Z,99982.94
2023-03-12T23:55:57.612Z,99979.97
2023-03-12T23:58:25.966Z,99985.06
